Time;durP1;ratioP1;P1;durP2;ratioP2;P2;SDS_P1;SDS_P2;PMS_P1;PMS_P2;Temp;Humidity;BMP_temperature;BMP_pressure;BME280_temperature;BME280_humidity;BME280_pressure;Samples;Min_cycle;Max_cycle;Signal;HPM_P1;HPM_P2
2022/12/26 00:00:16;;;;;;;25.40;10.70;;;;;;;;;;10483998;28;20025;-78
2022/12/26 00:05:16;;;;;;;18.73;8.30;;;;;;;;;;10470680;28;20029;-72
2022/12/26 00:10:17;;;;;;;14.07;7.13;;;;;;;;;;10478114;28;20020;-80
2022/12/26 00:15:17;;;;;;;18.30;8.30;;;;;;;;;;10433615;28;20075;-73
2022/12/26 00:20:17;;;;;;;21.43;9.87;;;;;;;;;;10480995;28;20070;-72
2022/12/26 00:25:18;;;;;;;18.20;9.03;;;;;;;;;;10470868;28;20486;-80
2022/12/26 00:30:18;;;;;;;20.73;8.25;;;;;;;;;;10455869;28;20131;-74
2022/12/26 00:35:18;;;;;;;18.60;9.10;;;;;;;;;;10461558;28;20098;-74
2022/12/26 00:40:19;;;;;;;17.48;7.93;;;;;;;;;;10480231;28;20837;-77
2022/12/26 00:45:19;;;;;;;21.23;8.50;;;;;;;;;;10469365;28;20455;-78
2022/12/26 00:50:19;;;;;;;25.97;8.43;;;;;;;;;;10442188;28;20457;-75
2022/12/26 00:55:19;;;;;;;17.85;8.20;;;;;;;;;;10482117;28;20437;-73
2022/12/26 01:00:20;;;;;;;28.42;11.75;;;;;;;;;;10480731;28;20016;-76
2022/12/26 01:05:20;;;;;;;17.42;8.38;;;;;;;;;;10476115;28;20024;-74
2022/12/26 01:10:20;;;;;;;21.03;8.53;;;;;;;;;;10462505;28;20024;-76
2022/12/26 01:15:20;;;;;;;18.10;8.82;;;;;;;;;;10487358;28;20052;-74
2022/12/26 01:20:21;;;;;;;20.40;8.93;;;;;;;;;;10487412;28;20043;-76
2022/12/26 01:25:22;;;;;;;15.90;7.97;;;;;;;;;;10487129;28;20031;-76
2022/12/26 01:30:22;;;;;;;18.95;9.23;;;;;;;;;;10487253;28;20228;-75
2022/12/26 01:35:23;;;;;;;15.90;7.85;;;;;;;;;;10486684;28;20471;-79
2022/12/26 01:40:23;;;;;;;16.55;7.57;;;;;;;;;;10488130;28;20017;-77
2022/12/26 01:45:25;;;;;;;17.60;7.43;;;;;;;;;;10487721;28;20118;-76
2022/12/26 01:50:31;;;;;;;20.75;8.50;;;;;;;;;;10475987;28;20481;-74
2022/12/26 01:55:32;;;;;;;19.25;8.90;;;;;;;;;;10482037;28;20032;-73
2022/12/26 02:00:32;;;;;;;17.45;8.82;;;;;;;;;;10475905;28;20402;-71
2022/12/26 02:05:33;;;;;;;18.08;7.68;;;;;;;;;;10470419;28;20024;-76
2022/12/26 02:10:37;;;;;;;18.27;8.40;;;;;;;;;;10485827;28;20025;-77
2022/12/26 02:15:37;;;;;;;24.00;8.20;;;;;;;;;;10467270;28;20056;-77
2022/12/26 02:20:42;;;;;;;16.92;7.85;;;;;;;;;;10485714;28;20070;-78
2022/12/26 02:25:45;;;;;;;18.77;6.88;;;;;;;;;;10451381;28;20083;-75
2022/12/26 02:30:45;;;;;;;17.58;7.88;;;;;;;;;;10486174;28;20025;-77
2022/12/26 02:36:01;;;;;;;19.42;7.90;;;;;;;;;;10484402;28;20456;-74
2022/12/26 02:41:22;;;;;;;21.33;8.15;;;;;;;;;;10467684;28;20685;-74
2022/12/26 03:13:35;;;;;;;20.88;9.38;;;;;;;;;;10484343;28;20491;-77
2022/12/26 03:18:37;;;;;;;13.85;6.43;;;;;;;;;;10484226;28;20028;-75
2022/12/26 03:23:40;;;;;;;10.13;5.00;;;;;;;;;;10466551;28;20031;-75
2022/12/26 03:28:41;;;;;;;14.88;6.53;;;;;;;;;;10479365;28;20024;-75
2022/12/26 04:44:27;;;;;;;23.58;9.32;;;;;;;;;;10490773;28;20012;-74
2022/12/26 04:54:47;;;;;;;16.17;8.98;;;;;;;;;;10489976;28;20465;-74
2022/12/26 04:59:48;;;;;;;25.20;9.75;;;;;;;;;;10488791;28;20103;-76
2022/12/26 05:10:11;;;;;;;25.13;9.55;;;;;;;;;;10488917;28;20033;-71
2022/12/26 05:15:12;;;;;;;24.52;10.65;;;;;;;;;;10470441;28;20135;-74
2022/12/26 05:30:53;;;;;;;14.15;5.43;;;;;;;;;;10487345;28;20024;-78
2022/12/26 05:35:53;;;;;;;8.70;4.70;;;;;;;;;;10469775;28;20024;-76
2022/12/26 05:40:53;;;;;;;21.67;9.07;;;;;;;;;;10468625;28;20024;-75
2022/12/26 05:45:54;;;;;;;21.15;7.00;;;;;;;;;;10487122;28;20032;-74
2022/12/26 05:50:58;;;;;;;19.10;7.53;;;;;;;;;;10477101;28;20104;-73
2022/12/26 05:56:06;;;;;;;17.38;7.93;;;;;;;;;;10461960;28;20038;-72
2022/12/26 06:01:10;;;;;;;22.83;9.67;;;;;;;;;;10458335;28;20016;-73
2022/12/26 06:06:10;;;;;;;12.07;6.13;;;;;;;;;;10470473;28;20024;-72
2022/12/26 06:11:12;;;;;;;16.77;6.85;;;;;;;;;;10464974;28;20036;-77
2022/12/26 06:16:13;;;;;;;27.38;8.95;;;;;;;;;;10468890;28;20041;-77
2022/12/26 06:21:15;;;;;;;13.68;6.90;;;;;;;;;;10460012;28;20389;-77
2022/12/26 06:26:16;;;;;;;19.67;9.57;;;;;;;;;;10487249;28;20095;-73
2022/12/26 06:31:19;;;;;;;26.42;10.38;;;;;;;;;;10460105;28;20592;-75
2022/12/26 06:36:20;;;;;;;18.65;8.98;;;;;;;;;;10475011;28;20500;-73
2022/12/26 06:41:21;;;;;;;31.33;14.50;;;;;;;;;;10459111;28;20103;-73
2022/12/26 06:46:23;;;;;;;26.17;13.95;;;;;;;;;;10474717;28;20075;-71
2022/12/26 06:51:25;;;;;;;25.30;13.93;;;;;;;;;;10481999;28;20114;-76
2022/12/26 06:56:26;;;;;;;31.85;13.73;;;;;;;;;;10459490;28;20031;-74
2022/12/26 07:01:28;;;;;;;13.90;6.88;;;;;;;;;;10514431;22;20892;-74
2022/12/26 07:06:29;;;;;;;19.42;7.35;;;;;;;;;;10522091;28;20024;-78
2022/12/26 07:11:31;;;;;;;13.02;4.40;;;;;;;;;;10526599;28;20073;-73
2022/12/26 07:16:37;;;;;;;10.23;3.95;;;;;;;;;;10518709;28;20346;-75
2022/12/26 07:21:38;;;;;;;10.23;3.72;;;;;;;;;;10513700;28;20105;-73
2022/12/26 07:26:38;;;;;;;13.13;5.63;;;;;;;;;;10494234;28;20028;-72
2022/12/26 07:31:39;;;;;;;16.25;6.22;;;;;;;;;;10478148;28;20028;-77
2022/12/26 07:36:40;;;;;;;13.68;5.63;;;;;;;;;;10478479;28;20118;-77
2022/12/26 07:41:59;;;;;;;21.85;6.82;;;;;;;;;;10468346;28;20025;-75
2022/12/26 07:46:59;;;;;;;16.38;6.63;;;;;;;;;;10469566;28;20139;-74
2022/12/26 07:52:01;;;;;;;16.38;7.28;;;;;;;;;;10490950;28;20064;-74
2022/12/26 07:57:02;;;;;;;14.65;6.78;;;;;;;;;;10493977;28;20376;-75
2022/12/26 08:02:03;;;;;;;15.82;7.88;;;;;;;;;;10490262;28;20048;-72
2022/12/26 08:07:04;;;;;;;21.80;7.88;;;;;;;;;;10475913;28;20437;-71
2022/12/26 08:12:04;;;;;;;21.93;9.20;;;;;;;;;;10478391;28;20436;-74
2022/12/26 08:17:05;;;;;;;23.20;10.83;;;;;;;;;;10492696;28;20059;-72
2022/12/26 08:22:05;;;;;;;25.35;11.18;;;;;;;;;;10482826;28;20074;-74
2022/12/26 08:27:05;;;;;;;27.02;11.65;;;;;;;;;;10483706;28;20043;-77
2022/12/26 08:32:05;;;;;;;18.60;9.30;;;;;;;;;;10482103;28;20397;-74
2022/12/26 08:37:06;;;;;;;23.43;10.83;;;;;;;;;;10485194;28;20599;-75
2022/12/26 08:42:06;;;;;;;36.97;16.63;;;;;;;;;;10485580;28;20500;-75
2022/12/26 08:47:06;;;;;;;31.55;15.80;;;;;;;;;;10485035;28;20512;-72
2022/12/26 08:52:07;;;;;;;35.85;16.75;;;;;;;;;;10479701;28;20024;-74
2022/12/26 08:57:07;;;;;;;23.65;13.07;;;;;;;;;;10482732;28;20494;-78
2022/12/26 09:02:10;;;;;;;27.02;12.98;;;;;;;;;;10481547;28;20150;-78
2022/12/26 09:07:11;;;;;;;24.58;13.18;;;;;;;;;;10488282;28;20055;-76
2022/12/26 09:12:12;;;;;;;20.73;10.93;;;;;;;;;;10483870;28;20127;-74
2022/12/26 09:17:12;;;;;;;24.45;11.05;;;;;;;;;;10489951;28;20031;-74
2022/12/26 09:27:31;;;;;;;;;;;;;;;;;;10476215;28;20453;-77
2022/12/26 09:32:35;;;;;;;30.52;13.55;;;;;;;;;;10500472;28;19916;-74
2022/12/26 09:37:35;;;;;;;32.00;15.45;;;;;;;;;;10482771;28;20469;-73
2022/12/26 09:42:47;;;;;;;34.17;15.57;;;;;;;;;;10483903;28;20620;-72
2022/12/26 09:47:59;;;;;;;22.50;12.80;;;;;;;;;;10483807;28;20103;-73
2022/12/26 09:53:02;;;;;;;25.23;12.35;;;;;;;;;;10482860;28;20918;-74
2022/12/26 09:58:23;;;;;;;26.33;13.32;;;;;;;;;;10481094;28;20028;-76
2022/12/26 10:03:23;;;;;;;27.92;11.80;;;;;;;;;;10497868;28;20702;-74
2022/12/26 10:08:36;;;;;;;15.25;7.80;;;;;;;;;;10489657;28;20032;-73
2022/12/26 10:13:51;;;;;;;17.88;8.77;;;;;;;;;;10486857;28;20105;-75
2022/12/26 10:18:57;;;;;;;19.80;8.07;;;;;;;;;;10489494;28;20024;-79
2022/12/26 10:24:04;;;;;;;18.55;7.93;;;;;;;;;;10490925;28;20104;-79
2022/12/26 10:29:07;;;;;;;13.77;6.80;;;;;;;;;;10482014;28;20046;-76
2022/12/26 10:34:07;;;;;;;12.57;6.78;;;;;;;;;;10476192;28;20074;-79
2022/12/26 10:39:15;;;;;;;12.17;6.37;;;;;;;;;;10479380;28;20176;-74
2022/12/26 10:44:15;;;;;;;;;;;;;;;;;;10468442;28;20320;-78
2022/12/26 10:49:17;;;;;;;8.23;4.20;;;;;;;;;;10498176;28;19904;-81
2022/12/26 10:54:18;;;;;;;15.20;5.93;;;;;;;;;;10473280;28;20028;-76
2022/12/26 10:59:20;;;;;;;9.70;5.03;;;;;;;;;;10478641;28;20028;-80
2022/12/26 11:04:22;;;;;;;14.48;6.72;;;;;;;;;;10473008;28;20407;-79
2022/12/26 11:09:42;;;;;;;16.88;7.85;;;;;;;;;;10472189;28;20082;-77
2022/12/26 11:14:44;;;;;;;23.42;9.52;;;;;;;;;;10480731;28;20070;-78
2022/12/26 11:19:45;;;;;;;16.23;8.20;;;;;;;;;;10466267;28;20215;-78
2022/12/26 11:24:45;;;;;;;18.40;8.02;;;;;;;;;;10481066;28;20024;-78
2022/12/26 11:29:45;;;;;;;22.25;7.60;;;;;;;;;;10481712;28;20023;-80
2022/12/26 11:34:47;;;;;;;11.23;5.47;;;;;;;;;;10469313;28;20025;-80
2022/12/26 11:39:50;;;;;;;7.22;4.05;;;;;;;;;;10473589;28;20032;-79
2022/12/26 11:44:53;;;;;;;16.00;6.25;;;;;;;;;;10468322;28;20089;-77
2022/12/26 11:50:05;;;;;;;6.32;3.40;;;;;;;;;;10482595;28;20080;-79
2022/12/26 11:55:21;;;;;;;9.52;4.05;;;;;;;;;;10473361;28;20032;-76
2022/12/26 12:00:21;;;;;;;6.55;3.38;;;;;;;;;;10483430;28;20088;-78
2022/12/26 12:05:22;;;;;;;6.25;3.30;;;;;;;;;;10485375;28;20795;-73
2022/12/26 12:10:46;;;;;;;16.83;4.53;;;;;;;;;;10469772;28;20025;-79
2022/12/26 12:15:55;;;;;;;8.95;4.10;;;;;;;;;;10473767;28;20028;-77
2022/12/26 12:20:55;;;;;;;9.32;3.95;;;;;;;;;;10460943;28;20039;-80
2022/12/26 12:25:56;;;;;;;8.85;4.10;;;;;;;;;;10476466;28;20824;-79
2022/12/26 12:30:59;;;;;;;5.40;3.15;;;;;;;;;;10483081;28;20036;-78
2022/12/26 12:36:16;;;;;;;18.00;5.88;;;;;;;;;;10474172;28;20096;-79
2022/12/26 12:41:35;;;;;;;9.93;5.13;;;;;;;;;;10466667;28;20052;-77
2022/12/26 12:46:55;;;;;;;21.98;3.70;;;;;;;;;;10481026;28;20059;-74
2022/12/26 12:52:11;;;;;;;8.52;3.95;;;;;;;;;;10497499;28;20088;-75
2022/12/26 12:57:11;;;;;;;10.13;3.78;;;;;;;;;;10489710;28;20103;-77
2022/12/26 13:02:19;;;;;;;6.05;3.13;;;;;;;;;;10502942;28;20583;-77
2022/12/26 13:07:31;;;;;;;6.18;3.20;;;;;;;;;;10481672;28;20025;-77
2022/12/26 13:12:36;;;;;;;18.23;4.70;;;;;;;;;;10470808;28;20024;-77
2022/12/26 13:17:50;;;;;;;8.80;3.83;;;;;;;;;;10466486;28;20020;-73
2022/12/26 13:28:23;;;;;;;11.43;4.43;;;;;;;;;;10471149;28;20025;-76
2022/12/26 13:33:27;;;;;;;14.18;5.32;;;;;;;;;;10466463;28;20024;-78
2022/12/26 13:38:46;;;;;;;7.30;4.63;;;;;;;;;;10472722;28;20514;-77
2022/12/26 13:44:04;;;;;;;8.05;3.67;;;;;;;;;;10487426;28;20047;-80
2022/12/26 13:49:26;;;;;;;10.73;4.40;;;;;;;;;;10472693;28;20048;-77
2022/12/26 13:54:27;;;;;;;10.68;4.45;;;;;;;;;;10458392;28;20031;-75
2022/12/26 13:59:35;;;;;;;10.93;4.45;;;;;;;;;;10476399;28;20584;-76
2022/12/26 14:04:42;;;;;;;10.02;4.68;;;;;;;;;;10474990;28;20515;-74
2022/12/26 14:10:01;;;;;;;6.63;3.97;;;;;;;;;;10484939;28;20510;-75
2022/12/26 14:15:02;;;;;;;11.57;4.93;;;;;;;;;;10471622;28;20546;-74
2022/12/26 14:20:19;;;;;;;15.77;5.35;;;;;;;;;;10471216;28;20147;-78
2022/12/26 14:25:28;;;;;;;13.15;5.45;;;;;;;;;;10492282;28;20078;-76
2022/12/26 14:30:48;;;;;;;12.00;5.43;;;;;;;;;;10472946;28;20028;-75
2022/12/26 14:35:55;;;;;;;27.15;7.85;;;;;;;;;;10471499;28;20028;-76
2022/12/26 14:46:54;;;;;;;25.88;6.93;;;;;;;;;;10472180;28;20028;-77
2022/12/26 14:52:14;;;;;;;20.70;7.47;;;;;;;;;;10489447;28;20020;-75
2022/12/26 14:57:33;;;;;;;24.40;8.75;;;;;;;;;;10489771;28;20040;-78
2022/12/26 15:02:34;;;;;;;19.08;8.10;;;;;;;;;;10482307;28;20052;-78
2022/12/26 15:07:35;;;;;;;18.38;8.70;;;;;;;;;;10470911;28;20031;-76
2022/12/26 15:12:44;;;;;;;26.23;10.75;;;;;;;;;;10475522;28;20031;-74
2022/12/26 15:18:03;;;;;;;25.80;9.35;;;;;;;;;;10486013;28;20029;-75
2022/12/26 15:23:22;;;;;;;23.20;9.85;;;;;;;;;;10487136;28;20148;-77
2022/12/26 15:28:35;;;;;;;26.15;11.20;;;;;;;;;;10486788;28;20024;-76
2022/12/26 15:33:54;;;;;;;33.60;11.15;;;;;;;;;;10496947;28;20021;-74
2022/12/26 15:38:54;;;;;;;;;;;;;;;;;;10477032;28;20028;-74
2022/12/26 15:44:03;;;;;;;26.55;10.40;;;;;;;;;;10480758;28;20397;-79
2022/12/26 15:49:04;;;;;;;38.13;13.75;;;;;;;;;;10481651;28;20024;-79
2022/12/26 15:54:04;;;;;;;33.65;11.35;;;;;;;;;;10479203;28;20402;-79
2022/12/26 15:59:23;;;;;;;28.92;11.18;;;;;;;;;;10465270;28;20024;-80
2022/12/26 16:04:23;;;;;;;;;;;;;;;;;;10469865;28;20049;-78
2022/12/26 16:09:29;;;;;;;45.35;12.77;;;;;;;;;;10468982;28;19908;-79
2022/12/26 16:14:34;;;;;;;34.17;12.43;;;;;;;;;;10466105;28;20041;-78
2022/12/26 16:19:34;;;;;;;38.53;15.80;;;;;;;;;;10483103;28;20217;-79
2022/12/26 16:24:36;;;;;;;26.45;12.50;;;;;;;;;;10481321;28;20090;-79
2022/12/26 16:29:42;;;;;;;30.95;14.32;;;;;;;;;;10475623;28;20156;-77
2022/12/26 16:34:43;;;;;;;35.95;13.60;;;;;;;;;;10472013;28;20036;-79
2022/12/26 16:40:03;;;;;;;37.67;14.73;;;;;;;;;;10488670;28;20044;-72
2022/12/26 16:45:04;;;;;;;32.08;14.70;;;;;;;;;;10477956;28;20025;-75
2022/12/26 16:50:05;;;;;;;38.33;14.70;;;;;;;;;;10474237;28;20028;-80
2022/12/26 16:55:25;;;;;;;32.38;17.45;;;;;;;;;;10483466;28;20114;-78
2022/12/26 17:00:26;;;;;;;44.60;15.75;;;;;;;;;;10487033;28;20067;-78
2022/12/26 17:05:28;;;;;;;51.72;15.85;;;;;;;;;;10477428;28;20032;-79
2022/12/26 17:10:33;;;;;;;46.35;16.00;;;;;;;;;;10478563;28;20300;-74
2022/12/26 17:15:39;;;;;;;28.60;14.13;;;;;;;;;;10473403;28;20388;-78
2022/12/26 17:20:40;;;;;;;35.03;17.98;;;;;;;;;;10472758;28;20027;-73
2022/12/26 17:25:40;;;;;;;34.17;17.30;;;;;;;;;;10488142;28;20021;-78
2022/12/26 17:30:42;;;;;;;37.83;17.48;;;;;;;;;;10492954;28;20020;-74
2022/12/26 17:35:50;;;;;;;43.78;18.85;;;;;;;;;;10478318;28;20490;-77
2022/12/26 17:40:54;;;;;;;45.25;17.15;;;;;;;;;;10476436;28;20032;-72
2022/12/26 17:45:55;;;;;;;51.83;18.75;;;;;;;;;;10480344;28;20060;-73
2022/12/26 17:50:57;;;;;;;41.45;18.55;;;;;;;;;;10500404;28;20052;-72
2022/12/26 17:56:00;;;;;;;40.78;17.98;;;;;;;;;;10482937;28;20102;-75
2022/12/26 18:01:02;;;;;;;39.15;17.45;;;;;;;;;;10471361;28;20448;-73
2022/12/26 18:06:02;;;;;;;40.88;19.58;;;;;;;;;;10474184;28;20482;-76
2022/12/26 18:11:04;;;;;;;43.73;18.33;;;;;;;;;;10475461;28;20033;-77
2022/12/26 18:16:05;;;;;;;47.80;18.83;;;;;;;;;;10464552;28;20328;-78
2022/12/26 18:21:06;;;;;;;48.47;19.05;;;;;;;;;;10479171;28;20566;-74
2022/12/26 18:26:11;;;;;;;56.25;19.20;;;;;;;;;;10474409;28;20047;-77
2022/12/26 18:31:15;;;;;;;46.58;20.52;;;;;;;;;;10465795;28;20040;-78
2022/12/26 18:36:16;;;;;;;40.55;17.33;;;;;;;;;;10478152;28;20096;-77
2022/12/26 18:41:17;;;;;;;43.65;19.83;;;;;;;;;;10468611;28;20032;-73
2022/12/26 18:46:19;;;;;;;41.65;17.05;;;;;;;;;;10477378;28;20058;-79
2022/12/26 18:51:20;;;;;;;44.72;18.77;;;;;;;;;;10465094;28;20025;-75
2022/12/26 18:56:21;;;;;;;36.20;13.88;;;;;;;;;;10486527;28;20032;-77
2022/12/26 19:01:21;;;;;;;60.25;19.67;;;;;;;;;;10484167;28;20060;-77
2022/12/26 19:06:23;;;;;;;37.85;17.67;;;;;;;;;;10468511;28;20032;-77
2022/12/26 19:11:23;;;;;;;32.50;13.80;;;;;;;;;;10518450;22;20067;-77
2022/12/26 19:16:24;;;;;;;43.05;15.18;;;;;;;;;;10481376;28;20023;-76
2022/12/26 19:21:24;;;;;;;26.08;13.98;;;;;;;;;;10517885;22;20596;-76
2022/12/26 19:26:24;;;;;;;29.97;13.20;;;;;;;;;;10517613;28;20050;-78
2022/12/26 19:31:25;;;;;;;38.67;14.98;;;;;;;;;;10496726;28;20032;-78
2022/12/26 19:36:25;;;;;;;28.10;11.85;;;;;;;;;;10489387;28;20032;-77
2022/12/26 19:41:25;;;;;;;34.93;12.63;;;;;;;;;;10486796;28;20462;-73
2022/12/26 19:46:27;;;;;;;18.35;10.15;;;;;;;;;;10495358;28;20508;-75
2022/12/26 19:51:27;;;;;;;30.70;12.30;;;;;;;;;;10487810;28;20181;-74
2022/12/26 19:56:28;;;;;;;24.75;10.07;;;;;;;;;;10503944;28;20435;-78
2022/12/26 20:01:29;;;;;;;24.63;9.85;;;;;;;;;;10502946;28;20032;-76
2022/12/26 20:06:31;;;;;;;26.52;12.45;;;;;;;;;;10517072;28;20033;-75
2022/12/26 20:11:33;;;;;;;22.05;11.88;;;;;;;;;;10474912;28;20020;-78
2022/12/26 20:16:34;;;;;;;26.48;11.40;;;;;;;;;;10488475;28;20106;-75
2022/12/26 20:21:35;;;;;;;26.05;12.48;;;;;;;;;;10485656;28;20133;-77
2022/12/26 20:26:35;;;;;;;34.10;13.02;;;;;;;;;;10502386;28;20421;-77
2022/12/26 20:31:35;;;;;;;33.38;14.20;;;;;;;;;;10492979;28;20478;-77
2022/12/26 20:36:36;;;;;;;39.80;13.23;;;;;;;;;;10482837;28;20131;-76
2022/12/26 20:41:37;;;;;;;34.72;14.70;;;;;;;;;;10497421;28;20546;-77
2022/12/26 20:46:39;;;;;;;35.45;14.82;;;;;;;;;;10479939;28;20085;-77
2022/12/26 20:51:41;;;;;;;29.80;13.48;;;;;;;;;;10491539;28;20478;-75
2022/12/26 20:56:41;;;;;;;44.50;15.38;;;;;;;;;;10475930;28;20020;-74
2022/12/26 21:01:41;;;;;;;37.73;14.67;;;;;;;;;;10495749;28;20101;-74
2022/12/26 21:06:44;;;;;;;56.28;21.52;;;;;;;;;;10488237;28;20501;-77
2022/12/26 21:11:46;;;;;;;35.42;19.40;;;;;;;;;;10482968;28;20081;-74
2022/12/26 21:16:46;;;;;;;39.10;19.55;;;;;;;;;;10494831;28;20502;-73
2022/12/26 21:21:47;;;;;;;40.42;19.08;;;;;;;;;;10496099;28;20163;-76
2022/12/26 21:26:48;;;;;;;37.92;19.13;;;;;;;;;;10494934;28;20047;-73
2022/12/26 21:31:48;;;;;;;41.17;19.38;;;;;;;;;;10487025;28;20020;-77
2022/12/26 21:42:08;;;;;;;37.47;18.90;;;;;;;;;;10494186;28;20017;-73
2022/12/26 21:47:09;;;;;;;52.42;22.38;;;;;;;;;;10482613;28;20021;-73
2022/12/26 21:52:10;;;;;;;38.07;20.00;;;;;;;;;;10486285;28;20036;-74
2022/12/26 21:57:10;;;;;;;37.22;19.08;;;;;;;;;;10512903;28;20034;-74
2022/12/26 22:04:17;;;;;;;50.63;22.17;;;;;;;;;;10496871;28;20107;-72
2022/12/26 22:07:32;;;;;;;51.42;24.25;;;;;;;;;;10491681;28;20031;-78
2022/12/26 22:17:52;;;;;;;52.97;21.50;;;;;;;;;;10483478;28;20067;-78
2022/12/26 22:22:54;;;;;;;50.05;23.65;;;;;;;;;;10479396;28;20037;-74
2022/12/26 22:27:54;;;;;;;58.47;23.45;;;;;;;;;;10484000;28;20135;-74
2022/12/26 22:32:54;;;;;;;51.90;21.75;;;;;;;;;;10499018;28;20029;-73
2022/12/26 22:37:55;;;;;;;48.25;21.58;;;;;;;;;;10499004;28;20166;-77
2022/12/26 22:42:55;;;;;;;47.03;22.35;;;;;;;;;;10499642;28;20151;-71
2022/12/26 22:47:55;;;;;;;61.30;23.70;;;;;;;;;;10482858;28;20434;-72
2022/12/26 22:52:56;;;;;;;42.97;21.90;;;;;;;;;;10500758;28;20020;-79
2022/12/26 22:57:56;;;;;;;47.78;21.40;;;;;;;;;;10501770;28;20038;-76
2022/12/26 23:02:56;;;;;;;60.10;22.95;;;;;;;;;;10496594;28;20036;-73
2022/12/26 23:07:57;;;;;;;44.53;21.93;;;;;;;;;;10468849;28;20028;-79
2022/12/26 23:12:57;;;;;;;45.77;20.70;;;;;;;;;;10476161;28;20036;-75
2022/12/26 23:23:32;;;;;;;51.03;23.20;;;;;;;;;;10471325;28;20060;-74
2022/12/26 23:33:51;;;;;;;52.80;21.90;;;;;;;;;;10484154;28;20032;-73
2022/12/26 23:38:51;;;;;;;45.33;19.80;;;;;;;;;;10499002;28;20466;-74
2022/12/26 23:43:52;;;;;;;46.45;20.70;;;;;;;;;;10498733;28;20450;-72
2022/12/26 23:48:52;;;;;;;42.65;19.42;;;;;;;;;;10498311;28;20024;-72
2022/12/26 23:53:52;;;;;;;26.58;12.65;;;;;;;;;;10483646;28;20028;-77
2022/12/26 23:58:53;;;;;;;27.50;12.63;;;;;;;;;;10485088;28;20101;-73
